Impacts TAF Board
For situational awareness. Not to be used for flight planning purposes.
IDs:

KIAD - Washington/Dulles In, VA, US

Issued at 1733 UTC 26 Oct 2021
Updated at 1808 UTC 26 Oct 2021
Potential Impact None Slight Moderate High
Time<<27/07Z 27/08Z 27/09Z 27/10Z 27/11Z 27/12Z 27/13Z 27/14Z 27/15Z 27/16Z 27/17Z 27/18Z 27/19Z>>
Type PRVL PRVL PRVL PRVL PRVL PRVL PRVL PRVL PRVL PRVL PRVL PRVL PRVL
VIS >6 >6 >6 >6 >6 >6 >6 >6 >6 >6 >6 >6 >6
CIG 45 45 40 40 40 40 40 40 40 40 40 40 --
Cover BKN BKN BKN BKN BKN BKN BKN BKN BKN BKN BKN BKN FEW
FltCat VFR VFR VFR VFR VFR VFR VFR VFR VFR VFR VFR VFR VFR
WX -- -- -- -- -- -- -- -- -- -- -- -- --
WDir 320 320 320 320 320 320 320 320 320 320 320 320 330
WSpd 21 21 15 15 15 15 15 15 15 15 15 15 8
WGst 36 36 24 24 24 24 24 24 24 24 24 24 16
Raw TAF
KIAD 261733Z 2618/2724 31025G40KT P6SM SCT070
  FM262100 31027G43KT P6SM BKN050
  FM270200 32021G36KT P6SM BKN045
  FM270900 32015G24KT P6SM BKN040
  FM271900 33008G16KT P6SM FEW250
  FM272300 33007KT P6SM FEW250


METAR Board
Radar Display
Forecast Discussion
For situational awareness. Not to be used for flight planning purposes.